10 augustus 2022

Tijd Code Weer Temp. Zicht Plafond Wind METAR/SPECI
15:25
V
27 °C 10 km+ - 070° 070° 7 kt METAR EHGG 101325Z AUTO 07007KT 010V130 9999 NCD 27/14 Q1026 NOSIG
14:55
V
27 °C 10 km+ - Var Var 6 kt METAR EHGG 101255Z AUTO VRB06KT 9999 NCD 27/13 Q1026 NOSIG
14:25
V
26 °C 10 km+ - 050° 050° 7 kt METAR EHGG 101225Z AUTO 05007KT 340V130 9999 NCD 26/13 Q1026 NOSIG
13:55
V
26 °C 10 km+ - 080° 080° 7 kt METAR EHGG 101155Z AUTO 08007KT 010V160 9999 NCD 26/13 Q1027 NOSIG
13:25
V
26 °C 10 km+ - 060° 060° 7 kt METAR EHGG 101125Z AUTO 06007KT 020V140 9999 NCD 26/13 Q1027 NOSIG
12:55
V
25 °C 10 km+ - 080° 080° 5 kt METAR EHGG 101055Z AUTO 08005KT 030V120 9999 NCD 25/13 Q1027 NOSIG
12:25
V
25 °C 10 km+ - 100° 100° 6 kt METAR EHGG 101025Z AUTO 10006KT 040V180 9999 NCD 25/14 Q1027 NOSIG
11:55
V
24 °C 10 km+ - 050° 050° 6 kt METAR EHGG 100955Z AUTO 05006KT 340V120 9999 NCD 24/15 Q1028 NOSIG
11:25
V
23 °C 10 km+ - 060° 060° 6 kt METAR EHGG 100925Z AUTO 06006KT 020V110 9999 NCD 23/14 Q1028 NOSIG
10:55
V
22 °C 10 km+ - 070° 070° 7 kt METAR EHGG 100855Z AUTO 07007KT 040V110 9999 NCD 22/14 Q1028 NOSIG
10:25
V
22 °C 10 km+ - 060° 060° 6 kt METAR EHGG 100825Z AUTO 06006KT 010V120 9999 NCD 22/16 Q1028 NOSIG
09:55
V
21 °C 10 km+ - 060° 060° 7 kt METAR EHGG 100755Z AUTO 06007KT 030V090 9999 NSC 21/16 Q1028 NOSIG
09:25
V
20 °C 10 km+ - 060° 060° 7 kt METAR EHGG 100725Z AUTO 06007KT 030V110 9999 NSC 20/16 Q1028 NOSIG
08:55
V
19 °C 10 km+ - 060° 060° 8 kt METAR EHGG 100655Z AUTO 06008KT 9999 NSC 19/16 Q1028 NOSIG
08:25
V
17 °C 10 km+ - 060° 060° 7 kt METAR EHGG 100625Z AUTO 06007KT 9999 NSC 17/16 Q1028 NOSIG
07:55
V
16 °C 9 km - 050° 050° 6 kt METAR EHGG 100555Z AUTO 05006KT 020V080 9000 NSC 16/16 Q1028 BECMG CAVOK
07:25
M
16 °C 7 km - 040° 040° 4 kt METAR EHGG 100525Z AUTO 04004KT 010V070 7000 NSC 16/15 Q1028 BECMG CAVOK
06:55
M
15 °C 5 km - 050° 050° 5 kt METAR EHGG 100455Z AUTO 05005KT 5000 NSC 15/14 Q1028 BECMG CAVOK
06:25
I
13 °C 4,2 km - 040° 040° 4 kt METAR EHGG 100425Z AUTO 04004KT 4200 R05/1100U BR NSC 13/13 Q1028
05:55
I
13 °C 4,8 km - 040° 040° 3 kt METAR EHGG 100355Z AUTO 04003KT 4800 R05/0500D BR NSC 13/13 Q1028
05:25
M
13 °C 5 km - 040° 040° 4 kt METAR EHGG 100325Z AUTO 04004KT 5000 R05/1300U NCD 13/13 Q1028
04:55
M
13 °C 5 km - 050° 050° 4 kt METAR EHGG 100255Z AUTO 05004KT 5000 NCD 13/13 Q1028
04:25
I
13 °C 4,5 km - 050° 050° 4 kt METAR EHGG 100225Z AUTO 05004KT 4500 BR NSC 13/13 Q1028
03:55
M
13 °C 5 km - 040° 040° 4 kt METAR EHGG 100155Z AUTO 04004KT 5000 NSC 13/12 Q1028
03:25
I
13 °C 3,8 km - 040° 040° 3 kt METAR EHGG 100125Z AUTO 04003KT 3800 BR NSC 13/13 Q1028
02:55
V
12 °C 10 km+ - 060° 060° 4 kt METAR EHGG 100055Z AUTO 06004KT 9999 NSC 12/12 Q1028
02:25
M
13 °C 5 km - 040° 040° 3 kt METAR EHGG 100025Z AUTO 04003KT 5000 BR NSC 13/12 Q1028
01:25
V
13 °C 10 km+ - 040° 040° 3 kt METAR EHGG 092325Z AUTO 04003KT 9999 NCD 13/12 Q1029
00:55
V
15 °C 10 km+ - 020° 020° 4 kt METAR EHGG 092255Z AUTO 02004KT 350V050 9999 NSC 15/13 Q1029
00:25
V
14 °C 10 km+ - 040° 040° 4 kt METAR EHGG 092225Z AUTO 04004KT 9999 NSC 14/12 Q1029

9 augustus 2022

Tijd Code Weer Temp. Zicht Plafond Wind METAR/SPECI
23:55
V
15 °C 10 km+ - 040° 040° 4 kt METAR EHGG 092155Z AUTO 04004KT 9999 NSC 15/12 Q1029
23:25
V
15 °C 10 km+ - 040° 040° 5 kt METAR EHGG 092125Z AUTO 04005KT 9999 NSC 15/12 Q1029
22:55
V
16 °C 10 km+ - 030° 030° 6 kt METAR EHGG 092055Z AUTO 03006KT 360V060 9999 NSC 16/13 Q1029 NOSIG
22:25
V
17 °C 10 km+ - 020° 020° 7 kt METAR EHGG 092025Z AUTO 02007KT 9999 NSC 17/13 Q1029 NOSIG
21:55
V
17 °C 10 km+ - 010° 010° 7 kt METAR EHGG 091955Z AUTO 01007KT 340V040 9999 NSC 17/13 Q1029 NOSIG
21:25
V
18 °C 10 km+ - 020° 020° 6 kt METAR EHGG 091925Z AUTO 02006KT 350V050 9999 NCD 18/12 Q1028 NOSIG
20:55
V
18 °C 10 km+ - 040° 040° 6 kt METAR EHGG 091855Z AUTO 04006KT 010V070 9999 NCD 18/12 Q1028 NOSIG
20:25
V
20 °C 10 km+ - 030° 030° 9 kt METAR EHGG 091825Z AUTO 03009KT 9999 NCD 20/11 Q1028 NOSIG
19:55
V
20 °C 10 km+ - 030° 030° 10 kt METAR EHGG 091755Z AUTO 03010KT 9999 NSC 20/11 Q1028 NOSIG
19:25
V
21 °C 10 km+ - 020° 020° 9 kt METAR EHGG 091725Z AUTO 02009KT 330V060 9999 NCD 21/11 Q1028 NOSIG
18:55
V
22 °C 10 km+ - 010° 010° 10 kt METAR EHGG 091655Z AUTO 01010KT 340V050 9999 NCD 22/11 Q1028 NOSIG
18:25
V
22 °C 10 km+ - 030° 030° 11 kt METAR EHGG 091625Z AUTO 03011KT 350V060 9999 NSC 22/12 Q1028 NOSIG
17:55
V
23 °C 10 km+ - 030° 030° 10 kt METAR EHGG 091555Z AUTO 03010KT 350V070 9999 NSC 23/12 Q1028 NOSIG
17:25
V
23 °C 10 km+ - 010° 010° 10 kt METAR EHGG 091525Z AUTO 01010KT 330V050 9999 NCD 23/13 Q1028 NOSIG
16:55
V
23 °C 10 km+ - 050° 050° 9 kt METAR EHGG 091455Z AUTO 05009KT 350V090 9999 NSC 23/13 Q1028 NOSIG
16:25
V
24 °C 10 km+ - 050° 050° 9 kt METAR EHGG 091425Z AUTO 05009KT 360V080 9999 NSC 24/13 Q1029 NOSIG
15:55
V
24 °C 10 km+ - 050° 050° 9 kt METAR EHGG 091355Z AUTO 05009KT 9999 NCD 24/13 Q1029 NOSIG
15:25
V
24 °C 10 km+ - 030° 030° 8 kt METAR EHGG 091325Z AUTO 03008KT 340V080 9999 FEW036 24/13 Q1029 NOSIG
14:55
V
24 °C 10 km+ - 050° 050° 7 kt METAR EHGG 091255Z AUTO 05007KT 360V110 9999 SCT035 24/13 Q1029 NOSIG
14:25
V
23 °C 10 km+ - 020° 020° 8 kt METAR EHGG 091225Z AUTO 02008KT 330V070 9999 FEW033 23/14 Q1029 NOSIG
13:55
V
23 °C 10 km+ - Var Var 5 kt METAR EHGG 091155Z AUTO VRB05KT 9999 SCT031 23/14 Q1029 NOSIG
13:25
V
23 °C 10 km+ - 050° 050° 6 kt METAR EHGG 091125Z AUTO 05006KT 340V120 9999 SCT031 23/14 Q1029 NOSIG
12:55
V
22 °C 10 km+ - 070° 070° 7 kt METAR EHGG 091055Z AUTO 07007KT 020V120 9999 NCD 22/13 Q1029 NOSIG
12:25
V
22 °C 10 km+ - 040° 040° 7 kt METAR EHGG 091025Z AUTO 04007KT 300V080 9999 FEW031 22/13 Q1029 NOSIG
11:55
V
20 °C 10 km+ - 050° 050° 8 kt METAR EHGG 090955Z AUTO 05008KT 010V080 9999 FEW033 20/13 Q1030 NOSIG
11:25
V
21 °C 10 km+ - 050° 050° 8 kt METAR EHGG 090925Z AUTO 05008KT 010V100 9999 NSC 21/12 Q1029 NOSIG
10:55
V
19 °C 10 km+ - 050° 050° 8 kt METAR EHGG 090855Z AUTO 05008KT 9999 NCD 19/13 Q1030 NOSIG
10:25
V
20 °C 10 km+ - 060° 060° 7 kt METAR EHGG 090825Z AUTO 06007KT 010V110 9999 FEW024 20/13 Q1029 NOSIG
09:55
V
20 °C 10 km+ - 070° 070° 8 kt METAR EHGG 090755Z AUTO 07008KT 020V110 9999 FEW020 20/14 Q1029 NOSIG
09:25
V
19 °C 10 km+ - 030° 030° 6 kt METAR EHGG 090725Z AUTO 03006KT 350V080 9999 NCD 19/14 Q1029 NOSIG
08:55
V
18 °C 10 km+ - 030° 030° 3 kt METAR EHGG 090655Z AUTO 03003KT 340V080 9999 NCD 18/15 Q1029 NOSIG
08:25
V
16 °C 10 km+ - Var Var 2 kt METAR EHGG 090625Z AUTO VRB02KT 9999 NCD 16/15 Q1029 NOSIG
07:55
V
13 °C 10 km+ - Var Var 1 kt METAR EHGG 090555Z AUTO VRB01KT 9999 NCD 13/13 Q1029 NOSIG
07:25
V
11 °C 10 km+ - Var Var 1 kt METAR EHGG 090525Z AUTO VRB01KT 9999 NCD 11/11 Q1029 NOSIG
06:55
L
9 °C 450 m - Var 000° 0 kt METAR EHGG 090455Z AUTO 00000KT 0450 R05/0750U FG SCT000 09/09 Q1028 BECMG CAVOK
06:25
L
8 °C 250 m - 310° 310° 1 kt METAR EHGG 090425Z AUTO 31001KT 0250 R05/0650U FG VV000 08/08 Q1028 BECMG CAVOK
05:55
V
9 °C 10 km+ - Var 000° 0 kt METAR EHGG 090355Z AUTO 00000KT 9999 R05/0375D OVC000 09/09 Q1028
05:25
M
8 °C 6 km - 310° 310° 1 kt METAR EHGG 090325Z AUTO 31001KT 6000 R05/0650N OVC000 08/08 Q1028
04:55
L
9 °C 400 m - 310° 310° 1 kt METAR EHGG 090255Z AUTO 31001KT 0400 R05/1100D FG VV000 09/09 Q1028
04:25
V
9 °C 10 km+ - 310° 310° 1 kt METAR EHGG 090225Z AUTO 31001KT 9999 R05/1100U NCD 09/09 Q1028
03:55
V
10 °C 10 km+ - 310° 310° 1 kt METAR EHGG 090155Z AUTO 31001KT 9999 R05/1100U SCT000 10/10 Q1028
03:25
V
10 °C 10 km+ - 320° 320° 2 kt METAR EHGG 090125Z AUTO 32002KT 9999 FEW000 10/10 Q1028
02:55
L
9 °C 350 m - 050° 050° 1 kt METAR EHGG 090055Z AUTO 05001KT 0350 R05/1700U FG NCD 09/09 Q1028
02:25
M
10 °C 6 km - 050° 050° 1 kt METAR EHGG 090025Z AUTO 05001KT 6000 R05/0900U NCD 10/10 Q1028
01:55
L
10 °C 800 m - Var 000° 0 kt METAR EHGG 082355Z AUTO 00000KT 0800 R05/1300N BR NCD 10/10 Q1028
01:25
M
12 °C 7 km - Var 000° 0 kt METAR EHGG 082325Z AUTO 00000KT 7000 R05/1300N NCD 12/12 Q1028
00:55
V
12 °C 10 km+ - 050° 050° 2 kt METAR EHGG 082255Z AUTO 05002KT 9999 NCD 12/12 Q1028
00:25
V
13 °C 10 km+ - 070° 070° 2 kt METAR EHGG 082225Z AUTO 07002KT 9999 NCD 13/12 Q1028

8 augustus 2022

Tijd Code Weer Temp. Zicht Plafond Wind METAR/SPECI
23:55
V
14 °C 10 km+ - 040° 040° 4 kt METAR EHGG 082155Z AUTO 04004KT 9999 NCD 14/13 Q1028
23:25
V
14 °C 10 km+ - 050° 050° 3 kt METAR EHGG 082125Z AUTO 05003KT 9999 NCD 14/13 Q1028
22:55
V
16 °C 10 km+ - 020° 020° 4 kt METAR EHGG 082055Z AUTO 02004KT 340V040 9999 NCD 16/14 Q1028
22:25
V
16 °C 10 km+ - 020° 020° 5 kt METAR EHGG 082025Z AUTO 02005KT 9999 NCD 16/14 Q1027 NOSIG
21:55
V
17 °C 10 km+ - 020° 020° 5 kt METAR EHGG 081955Z AUTO 02005KT 9999 NCD 17/14 Q1027 NOSIG
21:25
V
17 °C 10 km+ - 010° 010° 5 kt METAR EHGG 081925Z AUTO 01005KT 9999 NCD 17/14 Q1027 NOSIG
20:55
V
18 °C 10 km+ - 030° 030° 4 kt METAR EHGG 081855Z AUTO 03004KT 9999 NCD 18/13 Q1027 NOSIG
20:25
V
19 °C 10 km+ - 020° 020° 6 kt METAR EHGG 081825Z AUTO 02006KT 330V040 9999 NCD 19/13 Q1027 NOSIG
19:55
V
19 °C 10 km+ - 020° 020° 7 kt METAR EHGG 081755Z AUTO 02007KT 350V050 9999 FEW034 19/13 Q1026 NOSIG
19:25
V
20 °C 10 km+ - 030° 030° 9 kt METAR EHGG 081725Z AUTO 03009KT 340V070 9999 SCT031 20/13 Q1026 NOSIG
18:55
V
21 °C 10 km+ - 010° 010° 8 kt METAR EHGG 081655Z AUTO 01008KT 330V050 9999 NCD 21/13 Q1026 NOSIG
18:25
V
20 °C 10 km+ 4.500 ft 020° 020° 6 kt METAR EHGG 081625Z AUTO 02006KT 350V050 9999 SCT039 BKN045 20/12 Q1026 NOSIG
17:55
V
21 °C 10 km+ 4.900 ft 030° 030° 5 kt METAR EHGG 081555Z AUTO 03005KT 340V050 9999 FEW034 OVC049 21/12 Q1026 NOSIG
17:25
V
21 °C 10 km+ 4.300 ft 020° 020° 6 kt METAR EHGG 081525Z AUTO 02006KT 350V050 9999 SCT033 SCT039 BKN043 21/13 Q1026 NOSIG
16:55
V
21 °C 10 km+ 3.200 ft 020° 020° 3 kt METAR EHGG 081455Z AUTO 02003KT 330V070 9999 OVC032 21/13 Q1026 NOSIG
16:25
V
21 °C 10 km+ 4.900 ft Var Var 2 kt METAR EHGG 081425Z AUTO VRB02KT 9999 FEW035 BKN049 21/13 Q1026 NOSIG
15:55
V
20 °C 10 km+ 3.000 ft Var Var 2 kt METAR EHGG 081355Z AUTO VRB02KT 9999 BKN030 BKN035 OVC040 20/13 Q1026 NOSIG
Oudere gegevens

Met cookies volgen wij en derde partijen jouw internetgedrag binnen onze site. Als je verdergaat gaan we ervan uit dat je dit goedvindt. Meer info